Pico dos Marins, Brazil
Current Conditions -  °F | °C
As of 6:00 PM on Thursday 18 Dec 2014 (Local Time) from SBGW Reporting Station
Scattered Clouds Scattered Clouds  
Wind Chill: 91°   Ceiling: Unl
Heat Index: 91°   Visibility: 6mi
Dew Point: 59°   Wind: 5mph
Humidity: 34%   Direction: 60°ENE
Pressure: 29.74"   Gusts: NA
Location:  22.61°S, 45.18°W
Report Text: SBGW 182000Z 06004KT 9999 SCT030 FEW033TCU 33/15 Q1007
Loading
Personal Weather Stations






























Interactive Weather Map New forecast layout! Learn more

10-Day Weather Forecast

Advertisements
Track Severe Weather on mobile